Time,TemperatureF,DewpointF,PressureIn,WindDirection,WindDirectionDegrees,WindSpeedMPH,WindSpeedGustMPH,Humidity,HourlyPrecipIn,Conditions,Clouds,dailyrainin,SoftwareType,DateUTC
2015-09-02 00:01:00,75.7,69.8,29.86,SSW,199,3.0,3.0,82,0.00,,,0.00,Wunderground v.1.15,2015-09-02 05:01:00,
2015-09-02 00:11:00,75.9,69.3,29.86,South,175,3.0,3.0,80,0.00,,,0.00,Wunderground v.1.15,2015-09-02 05:11:00,
2015-09-02 00:21:00,76.2,69.6,29.86,SSW,201,3.0,3.0,80,0.00,,,0.00,Wunderground v.1.15,2015-09-02 05:21:00,
2015-09-02 00:31:00,76.2,69.6,29.86,South,190,3.0,3.0,80,0.00,,,0.00,Wunderground v.1.15,2015-09-02 05:31:00,
2015-09-02 00:41:00,76.1,69.5,29.86,SSW,199,3.0,3.0,80,0.00,,,0.00,Wunderground v.1.15,2015-09-02 05:41:00,
2015-09-02 00:51:00,76.2,69.6,29.86,SSW,200,3.0,3.0,80,0.00,,,0.00,Wunderground v.1.15,2015-09-02 05:51:00,
2015-09-02 01:01:00,76.3,69.7,29.86,South,183,3.0,3.0,80,0.00,,,0.00,Wunderground v.1.15,2015-09-02 06:01:00,
2015-09-02 01:11:00,76.3,69.7,29.86,South,188,4.0,4.0,80,0.00,,,0.00,Wunderground v.1.15,2015-09-02 06:11:00,
2015-09-02 01:21:00,76.1,70.2,29.86,SSW,200,4.0,4.0,82,0.00,,,0.01,Wunderground v.1.15,2015-09-02 06:21:00,
2015-09-02 01:31:00,74.5,70.0,29.86,SSW,205,4.0,4.0,86,0.11,,,0.04,Wunderground v.1.15,2015-09-02 06:31:00,
2015-09-02 01:41:00,73.6,69.8,29.86,WSW,242,4.0,4.0,88,0.04,,,0.04,Wunderground v.1.15,2015-09-02 06:41:00,
2015-09-02 01:51:00,73.3,69.9,29.86,SSW,205,3.0,3.0,89,0.00,,,0.04,Wunderground v.1.15,2015-09-02 06:51:00,
2015-09-02 02:01:00,73.1,69.7,29.86,SW,230,2.0,2.0,89,0.31,,,0.07,Wunderground v.1.15,2015-09-02 07:01:00,
2015-09-02 02:11:00,72.5,69.7,29.86,ESE,109,1.0,1.0,91,0.08,,,0.08,Wunderground v.1.15,2015-09-02 07:11:00,
2015-09-02 02:21:00,72.1,69.6,29.86,SE,139,1.0,1.0,92,0.00,,,0.08,Wunderground v.1.15,2015-09-02 07:21:00,
2015-09-02 02:31:00,71.8,69.7,29.85,South,179,1.0,1.0,93,0.00,,,0.08,Wunderground v.1.15,2015-09-02 07:31:00,
2015-09-02 02:41:00,71.6,69.5,29.85,SW,221,0.0,0.0,93,0.00,,,0.08,Wunderground v.1.15,2015-09-02 07:41:00,
2015-09-02 02:51:00,71.5,69.4,29.85,WSW,243,1.0,1.0,93,0.00,,,0.08,Wunderground v.1.15,2015-09-02 07:51:00,
2015-09-02 03:01:00,71.5,69.4,29.85,South,185,0.0,0.0,93,0.00,,,0.08,Wunderground v.1.15,2015-09-02 08:01:00,
2015-09-02 03:11:00,71.4,69.3,29.85,SW,218,1.0,1.0,93,0.00,,,0.08,Wunderground v.1.15,2015-09-02 08:11:00,
2015-09-02 03:21:00,71.5,69.4,29.86,SW,217,1.0,1.0,93,0.00,,,0.08,Wunderground v.1.15,2015-09-02 08:21:00,
2015-09-02 03:31:00,71.5,69.1,29.86,SSW,200,1.0,2.0,92,0.00,,,0.08,Wunderground v.1.15,2015-09-02 08:31:00,
2015-09-02 03:41:00,71.4,69.3,29.86,WNW,297,1.0,2.0,93,0.00,,,0.08,Wunderground v.1.15,2015-09-02 08:41:00,
2015-09-02 03:51:00,71.2,68.8,29.86,South,191,1.0,2.0,92,0.00,,,0.08,Wunderground v.1.15,2015-09-02 08:51:00,
2015-09-02 04:01:00,71.1,69.0,29.86,SW,221,1.0,2.0,93,0.00,,,0.08,Wunderground v.1.15,2015-09-02 09:01:00,
2015-09-02 04:11:00,70.9,68.8,29.86,South,185,1.0,1.0,93,0.00,,,0.08,Wunderground v.1.15,2015-09-02 09:11:00,
2015-09-02 04:21:00,70.7,68.6,29.85,South,175,1.0,1.0,93,0.00,,,0.08,Wunderground v.1.15,2015-09-02 09:21:00,
2015-09-02 04:31:00,70.4,68.3,29.85,South,176,1.0,2.0,93,0.00,,,0.08,Wunderground v.1.15,2015-09-02 09:31:00,
2015-09-02 04:41:00,70.3,68.2,29.85,SSW,192,1.0,2.0,93,0.00,,,0.08,Wunderground v.1.15,2015-09-02 09:41:00,
2015-09-02 04:51:00,70.1,68.0,29.86,South,189,1.0,3.0,93,0.00,,,0.08,Wunderground v.1.15,2015-09-02 09:51:00,
2015-09-02 05:01:00,69.9,67.8,29.86,South,171,1.0,6.0,93,0.00,,,0.08,Wunderground v.1.15,2015-09-02 10:01:00,
2015-09-02 05:11:00,70.2,67.8,29.86,SW,217,3.0,3.0,92,0.00,,,0.08,Wunderground v.1.15,2015-09-02 10:11:00,
2015-09-02 05:21:00,70.4,67.6,29.86,SSW,202,2.0,2.0,91,0.00,,,0.08,Wunderground v.1.15,2015-09-02 10:21:00,
2015-09-02 05:31:00,70.4,67.6,29.86,SSW,198,2.0,5.0,91,0.00,,,0.08,Wunderground v.1.15,2015-09-02 10:31:00,
2015-09-02 05:41:00,70.5,67.7,29.87,South,191,2.0,5.0,91,0.00,,,0.08,Wunderground v.1.15,2015-09-02 10:41:00,
2015-09-02 05:51:00,70.7,67.9,29.87,SSW,208,3.0,3.0,91,0.00,,,0.08,Wunderground v.1.15,2015-09-02 10:51:00,
2015-09-02 06:01:00,70.8,67.7,29.86,WSW,257,3.0,3.0,90,0.00,,,0.08,Wunderground v.1.15,2015-09-02 11:01:00,
2015-09-02 06:11:00,71.0,67.9,29.86,SSW,207,3.0,3.0,90,0.00,,,0.08,Wunderground v.1.15,2015-09-02 11:11:00,
2015-09-02 06:21:00,71.0,67.6,29.87,SSW,204,3.0,3.0,89,0.00,,,0.08,Wunderground v.1.15,2015-09-02 11:21:00,
2015-09-02 06:31:00,71.0,67.6,29.87,SSW,213,4.0,4.0,89,0.00,,,0.08,Wunderground v.1.15,2015-09-02 11:31:00,
2015-09-02 06:41:00,71.1,67.4,29.87,SSW,199,3.0,3.0,88,0.00,,,0.08,Wunderground v.1.15,2015-09-02 11:41:00,
2015-09-02 06:51:00,71.3,67.2,29.87,South,186,3.0,5.0,87,0.00,,,0.08,Wunderground v.1.15,2015-09-02 11:51:00,
2015-09-02 07:01:00,71.3,67.2,29.86,SSW,203,3.0,3.0,87,0.00,,,0.08,Wunderground v.1.15,2015-09-02 12:01:00,
2015-09-02 07:11:00,71.4,67.3,29.86,South,188,4.0,4.0,87,0.00,,,0.08,Wunderground v.1.15,2015-09-02 12:11:00,
2015-09-02 07:21:00,71.4,67.3,29.87,SSW,195,4.0,4.0,87,0.00,,,0.08,Wunderground v.1.15,2015-09-02 12:21:00,
2015-09-02 07:31:00,71.3,66.9,29.87,South,181,4.0,4.0,86,0.00,,,0.08,Wunderground v.1.15,2015-09-02 12:31:00,
2015-09-02 07:41:00,71.2,66.8,29.87,SW,216,3.0,7.0,86,0.00,,,0.08,Wunderground v.1.15,2015-09-02 12:41:00,
2015-09-02 07:51:00,71.1,66.7,29.87,SW,220,3.0,3.0,86,0.00,,,0.08,Wunderground v.1.15,2015-09-02 12:51:00,
2015-09-02 08:01:00,71.3,66.6,29.87,SW,215,3.0,3.0,85,0.00,,,0.08,Wunderground v.1.15,2015-09-02 13:01:00,
2015-09-02 08:11:00,71.5,66.8,29.86,South,190,2.0,4.0,85,0.00,,,0.08,Wunderground v.1.15,2015-09-02 13:11:00,
2015-09-02 08:21:00,71.8,67.0,29.86,SSW,213,3.0,4.0,85,0.00,,,0.08,Wunderground v.1.15,2015-09-02 13:21:00,
2015-09-02 08:31:00,72.3,67.2,29.86,SSW,198,3.0,3.0,84,0.00,,,0.08,Wunderground v.1.15,2015-09-02 13:31:00,
2015-09-02 08:41:00,73.2,67.4,29.86,SW,222,5.0,5.0,82,0.00,,,0.08,Wunderground v.1.15,2015-09-02 13:41:00,
2015-09-02 08:51:00,74.0,67.8,29.86,South,191,5.0,5.0,81,0.00,,,0.08,Wunderground v.1.15,2015-09-02 13:51:00,
2015-09-02 09:01:00,74.6,68.0,29.86,SSE,167,5.0,5.0,80,0.00,,,0.08,Wunderground v.1.15,2015-09-02 14:01:00,
2015-09-02 09:11:00,75.1,68.5,29.86,SSW,200,4.0,4.0,80,0.00,,,0.08,Wunderground v.1.15,2015-09-02 14:11:00,
2015-09-02 09:21:00,75.7,68.7,29.85,SW,217,5.0,5.0,79,0.00,,,0.08,Wunderground v.1.15,2015-09-02 14:21:00,
2015-09-02 09:31:00,76.2,68.5,29.86,SW,223,6.0,6.0,77,0.00,,,0.08,Wunderground v.1.15,2015-09-02 14:31:00,
2015-09-02 09:41:00,76.6,69.2,29.86,SSW,195,6.0,8.0,78,0.00,,,0.08,Wunderground v.1.15,2015-09-02 14:41:00,
2015-09-02 09:51:00,76.8,69.4,29.86,South,178,6.0,6.0,78,0.00,,,0.08,Wunderground v.1.15,2015-09-02 14:51:00,
2015-09-02 10:01:00,76.9,69.5,29.86,South,191,7.0,7.0,78,0.00,,,0.08,Wunderground v.1.15,2015-09-02 15:01:00,
2015-09-02 10:11:00,77.0,69.2,29.86,South,186,8.0,8.0,77,0.00,,,0.08,Wunderground v.1.15,2015-09-02 15:11:00,
2015-09-02 10:21:00,77.4,70.4,29.86,WSW,242,7.0,7.0,79,0.00,,,0.08,Wunderground v.1.15,2015-09-02 15:21:00,
2015-09-02 10:31:00,77.8,70.8,29.85,SSW,210,7.0,7.0,79,0.00,,,0.08,Wunderground v.1.15,2015-09-02 15:31:00,
2015-09-02 10:41:00,78.2,70.4,29.85,South,179,7.0,7.0,77,0.00,,,0.08,Wunderground v.1.15,2015-09-02 15:41:00,
2015-09-02 10:51:00,78.7,70.9,29.85,SSW,212,7.0,8.0,77,0.00,,,0.08,Wunderground v.1.15,2015-09-02 15:51:00,
2015-09-02 11:01:00,78.9,71.5,29.85,SSE,161,8.0,8.0,78,0.00,,,0.08,Wunderground v.1.15,2015-09-02 16:01:00,
2015-09-02 11:11:00,79.2,71.0,29.85,South,176,7.0,7.0,76,0.00,,,0.08,Wunderground v.1.15,2015-09-02 16:11:00,
2015-09-02 11:21:00,79.6,71.8,29.85,WSW,257,7.0,10.0,77,0.00,,,0.08,Wunderground v.1.15,2015-09-02 16:21:00,
2015-09-02 11:31:00,79.9,71.7,29.84,SSW,201,7.0,8.0,76,0.00,,,0.08,Wunderground v.1.15,2015-09-02 16:31:00,
2015-09-02 11:41:00,80.6,71.5,29.84,SW,217,7.0,12.0,74,0.00,,,0.08,Wunderground v.1.15,2015-09-02 16:41:00,
2015-09-02 11:51:00,81.1,72.4,29.84,SW,215,7.0,7.0,75,0.00,,,0.08,Wunderground v.1.15,2015-09-02 16:51:00,
2015-09-02 12:01:00,81.6,72.1,29.84,SSW,211,6.0,6.0,73,0.00,,,0.08,Wunderground v.1.15,2015-09-02 17:01:00,
2015-09-02 12:11:00,81.4,71.9,29.83,South,186,8.0,9.0,73,0.00,,,0.08,Wunderground v.1.15,2015-09-02 17:11:00,
2015-09-02 12:21:00,82.1,72.2,29.83,SW,232,8.0,15.0,72,0.00,,,0.08,Wunderground v.1.15,2015-09-02 17:21:00,
2015-09-02 12:31:00,82.3,72.0,29.83,SW,234,8.0,15.0,71,0.00,,,0.08,Wunderground v.1.15,2015-09-02 17:31:00,
2015-09-02 12:41:00,82.7,72.3,29.83,South,190,7.0,7.0,71,0.00,,,0.08,Wunderground v.1.15,2015-09-02 17:41:00,
2015-09-02 12:51:00,82.9,72.5,29.83,South,173,7.0,9.0,71,0.00,,,0.08,Wunderground v.1.15,2015-09-02 17:51:00,
2015-09-02 13:01:00,83.3,72.9,29.83,WSW,250,6.0,6.0,71,0.00,,,0.08,Wunderground v.1.15,2015-09-02 18:01:00,
2015-09-02 13:11:00,83.6,72.8,29.82,SW,236,6.0,7.0,70,0.00,,,0.08,Wunderground v.1.15,2015-09-02 18:11:00,
2015-09-02 13:21:00,84.0,72.7,29.82,WSW,240,6.0,10.0,69,0.00,,,0.08,Wunderground v.1.15,2015-09-02 18:21:00,
2015-09-02 13:31:00,84.1,72.8,29.82,WSW,257,6.0,6.0,69,0.00,,,0.08,Wunderground v.1.15,2015-09-02 18:31:00,
2015-09-02 13:41:00,84.8,72.6,29.81,SW,234,6.0,9.0,67,0.00,,,0.08,Wunderground v.1.15,2015-09-02 18:41:00,
2015-09-02 13:51:00,84.8,72.2,29.81,SSW,208,7.0,7.0,66,0.00,,,0.08,Wunderground v.1.15,2015-09-02 18:51:00,
2015-09-02 14:01:00,85.0,71.9,29.81,SW,215,6.0,6.0,65,0.00,,,0.08,Wunderground v.1.15,2015-09-02 19:01:00,
2015-09-02 14:11:00,85.2,72.6,29.81,WSW,241,7.0,16.0,66,0.00,,,0.08,Wunderground v.1.15,2015-09-02 19:11:00,
2015-09-02 14:21:00,85.3,71.7,29.81,SW,228,8.0,8.0,64,0.00,,,0.08,Wunderground v.1.15,2015-09-02 19:21:00,
2015-09-02 14:31:00,85.7,72.6,29.80,South,169,7.0,7.0,65,0.00,,,0.08,Wunderground v.1.15,2015-09-02 19:31:00,
2015-09-02 14:41:00,86.0,71.9,29.80,WSW,246,6.0,7.0,63,0.00,,,0.08,Wunderground v.1.15,2015-09-02 19:41:00,
2015-09-02 14:51:00,86.1,71.6,29.80,SW,231,7.0,7.0,62,0.00,,,0.08,Wunderground v.1.15,2015-09-02 19:51:00,
2015-09-02 15:01:00,86.0,71.5,29.80,WSW,240,7.0,9.0,62,0.00,,,0.08,Wunderground v.1.15,2015-09-02 20:01:00,